Time;durP1;ratioP1;P1;durP2;ratioP2;P2;SDS_P1;SDS_P2;PMS_P1;PMS_P2;Temp;Humidity;BMP_temperature;BMP_pressure;BME280_temperature;BME280_humidity;BME280_pressure;Samples;Min_cycle;Max_cycle;Signal;HPM_P1;HPM_P2
2023/05/04 00:01:32;;;;;;;13.32;4.65;;;;;;;5.95;72.06;102334.22;5102384;28;20038;-60
2023/05/04 00:03:57;;;;;;;11.95;5.82;;;;;;;6.01;71.44;102333.34;5100041;28;20048;-60
2023/05/04 00:06:23;;;;;;;12.30;5.45;;;;;;;5.93;72.28;102333.31;5092441;28;20024;-59
2023/05/04 00:08:48;;;;;;;15.57;5.70;;;;;;;5.84;72.73;102328.09;5110991;28;20039;-59
2023/05/04 00:11:14;;;;;;;12.43;5.35;;;;;;;5.77;72.15;102334.19;5105584;28;20061;-60
2023/05/04 00:13:39;;;;;;;14.65;5.15;;;;;;;5.67;72.43;102328.97;5103577;28;20062;-59
2023/05/04 00:16:05;;;;;;;14.57;5.10;;;;;;;5.65;73.49;102327.22;5105203;28;20030;-60
2023/05/04 00:18:30;;;;;;;8.40;4.13;;;;;;;5.51;73.12;102321.97;5101770;28;20028;-59
2023/05/04 00:20:56;;;;;;;9.25;3.95;;;;;;;5.44;73.22;102325.44;5093763;28;20051;-60
2023/05/04 00:23:21;;;;;;;12.30;4.13;;;;;;;5.45;74.08;102324.59;5109242;28;20035;-59
2023/05/04 00:25:47;;;;;;;11.60;5.30;;;;;;;5.48;74.29;102327.22;5108558;28;20039;-60
2023/05/04 00:28:12;;;;;;;9.95;4.75;;;;;;;5.40;74.16;102328.97;5108726;28;20035;-60
2023/05/04 00:30:38;;;;;;;8.50;4.88;;;;;;;5.29;74.08;102326.31;5110264;28;20023;-60
2023/05/04 00:33:03;;;;;;;15.48;6.70;;;;;;;5.27;73.92;102328.94;5108503;28;20455;-60
2023/05/04 00:35:30;;;;;;;12.82;4.55;;;;;;;5.38;73.89;102328.06;5086928;28;20047;-60
2023/05/04 00:37:56;;;;;;;16.00;4.97;;;;;;;5.35;74.06;102320.22;5103578;28;20044;-59
2023/05/04 00:40:21;;;;;;;9.50;4.68;;;;;;;5.31;74.25;102325.47;5093950;28;20036;-62
2023/05/04 00:42:47;;;;;;;12.43;4.95;;;;;;;5.27;74.14;102323.69;5115666;27;20031;-59
2023/05/04 00:45:13;;;;;;;12.98;5.95;;;;;;;5.18;74.18;102318.41;5087454;28;20422;-60
2023/05/04 00:47:39;;;;;;;14.07;6.13;;;;;;;5.17;74.53;102316.69;5097889;28;20187;-60
2023/05/04 00:50:06;;;;;;;16.17;5.45;;;;;;;5.12;74.74;102318.44;5112681;28;20353;-60
2023/05/04 00:52:31;;;;;;;13.25;5.95;;;;;;;5.09;74.80;102318.41;5111683;28;20031;-59
2023/05/04 00:54:57;;;;;;;11.57;4.95;;;;;;;5.08;74.88;102314.03;5096556;28;20104;-60
2023/05/04 00:57:22;;;;;;;11.75;4.88;;;;;;;5.05;74.86;102322.78;5104845;27;20054;-60
2023/05/04 00:59:48;;;;;;;12.80;5.38;;;;;;;4.99;75.22;102309.66;5123475;27;20027;-60
2023/05/04 01:02:13;;;;;;;9.45;5.18;;;;;;;4.89;75.29;102308.75;5097468;28;20031;-61
2023/05/04 01:04:39;;;;;;;14.48;5.53;;;;;;;4.87;75.67;102313.13;5094029;28;20166;-58
2023/05/04 01:07:17;;;;;;;11.82;5.47;;;;;;;4.83;75.69;102313.09;5112275;28;20020;-60
2023/05/04 01:09:49;;;;;;;11.00;5.57;;;;;;;4.76;75.98;102312.22;5101376;28;20040;-61
2023/05/04 01:12:26;;;;;;;12.18;5.43;;;;;;;4.72;76.46;102318.28;5111236;28;20020;-60
2023/05/04 01:14:52;;;;;;;10.70;5.03;;;;;;;4.72;76.11;102313.06;5104827;28;20105;-60
2023/05/04 01:17:18;;;;;;;9.05;5.15;;;;;;;4.70;76.17;102309.56;5112700;28;20432;-60
2023/05/04 01:19:43;;;;;;;11.80;4.95;;;;;;;4.59;76.59;102313.03;5093297;28;20032;-60
2023/05/04 01:22:09;;;;;;;12.68;5.05;;;;;;;4.55;76.71;102306.00;5099497;28;20482;-60
2023/05/04 01:24:34;;;;;;;12.98;5.78;;;;;;;4.49;76.91;102305.97;5106935;28;20027;-61
2023/05/04 01:27:04;;;;;;;11.23;5.60;;;;;;;4.46;77.40;102311.19;5107880;28;20019;-60
2023/05/04 01:29:41;;;;;;;12.80;5.60;;;;;;;4.45;76.71;102308.59;5109977;28;20062;-61
2023/05/04 01:32:07;;;;;;;15.27;6.72;;;;;;;4.40;76.96;102303.34;5105585;28;20317;-60
2023/05/04 01:34:33;;;;;;;12.43;6.00;;;;;;;4.39;77.29;102304.19;5111616;28;20034;-61
2023/05/04 01:36:59;;;;;;;15.98;6.03;;;;;;;4.34;77.11;102308.53;5112174;28;20467;-60
2023/05/04 01:39:26;;;;;;;13.45;5.88;;;;;;;4.22;77.34;102307.59;5131988;27;20351;-60
2023/05/04 01:41:51;;;;;;;18.98;5.90;;;;;;;4.16;77.52;102307.56;5103818;27;20459;-60
2023/05/04 01:44:17;;;;;;;15.38;5.97;;;;;;;4.11;78.09;102309.28;5114157;28;20062;-60
2023/05/04 01:46:42;;;;;;;8.98;5.47;;;;;;;4.12;78.13;102304.91;5117840;27;20471;-60
2023/05/04 01:49:08;;;;;;;14.02;5.85;;;;;;;4.09;78.15;102303.16;5117871;28;20030;-60
2023/05/04 01:51:33;;;;;;;13.30;6.57;;;;;;;4.05;78.35;102306.63;5116566;28;20050;-61
2023/05/04 01:53:58;;;;;;;8.32;5.10;;;;;;;4.02;78.07;102303.97;5121440;27;20035;-60
2023/05/04 01:56:24;;;;;;;16.77;6.15;;;;;;;4.02;78.54;102303.97;5123391;27;20023;-60
2023/05/04 01:58:50;;;;;;;13.52;5.75;;;;;;;3.97;78.49;102303.06;5116376;28;20031;-59
2023/05/04 02:01:15;;;;;;;11.70;6.30;;;;;;;4.00;78.46;102295.25;5116590;28;20347;-59
2023/05/04 02:03:41;;;;;;;8.30;5.25;;;;;;;3.99;78.23;102298.75;5131902;27;20083;-59
2023/05/04 02:06:07;;;;;;;14.57;6.32;;;;;;;3.94;78.17;102295.19;5130875;27;20031;-59
2023/05/04 02:08:32;;;;;;;11.73;5.30;;;;;;;3.88;78.26;102295.19;5127329;27;20030;-59
2023/05/04 02:10:58;;;;;;;12.00;5.78;;;;;;;3.80;78.44;102303.84;5128670;28;20035;-60
2023/05/04 02:13:23;;;;;;;14.48;5.80;;;;;;;3.79;78.66;102302.09;5129640;27;20023;-60
2023/05/04 02:15:49;;;;;;;11.25;6.07;;;;;;;3.73;78.77;102290.69;5132031;27;20137;-59
2023/05/04 02:18:14;;;;;;;13.13;6.05;;;;;;;3.74;79.24;102302.91;5110661;28;20019;-60
2023/05/04 02:20:39;;;;;;;12.18;5.18;;;;;;;3.73;78.81;102296.81;5115788;28;20059;-60
2023/05/04 02:23:05;;;;;;;17.00;6.10;;;;;;;3.67;78.97;102302.00;5126846;27;20034;-58
2023/05/04 02:25:31;;;;;;;10.75;5.40;;;;;;;3.62;79.33;102293.25;5130844;28;20463;-60
2023/05/04 02:27:56;;;;;;;9.27;5.25;;;;;;;3.60;79.38;102298.47;5130784;27;20030;-58
2023/05/04 02:30:23;;;;;;;17.27;6.30;;;;;;;3.64;79.50;102299.34;5115578;27;20089;-59
2023/05/04 02:32:49;;;;;;;18.98;5.63;;;;;;;3.63;79.52;102295.00;5121168;27;20038;-60
2023/05/04 02:35:14;;;;;;;12.38;5.90;;;;;;;3.68;79.69;102303.75;5114749;27;20475;-60
2023/05/04 02:37:40;;;;;;;12.27;5.38;;;;;;;3.62;79.37;102294.13;5119099;27;20039;-60
2023/05/04 02:40:06;;;;;;;12.52;4.93;;;;;;;3.64;79.77;102297.59;5105127;27;20039;-60
2023/05/04 02:42:31;;;;;;;18.27;5.90;;;;;;;3.65;79.94;102298.50;5123396;27;20031;-62
2023/05/04 02:44:57;;;;;;;11.25;6.90;;;;;;;3.55;79.82;102299.28;5118475;27;20472;-59
2023/05/04 02:47:22;;;;;;;13.10;5.97;;;;;;;3.51;80.16;102300.13;5134248;27;20019;-60
2023/05/04 02:49:47;;;;;;;12.90;5.88;;;;;;;3.48;80.20;102296.63;5134872;27;20038;-60
2023/05/04 02:52:13;;;;;;;10.05;5.50;;;;;;;3.52;80.08;102299.28;5134886;27;20052;-59
2023/05/04 02:54:38;;;;;;;17.25;5.80;;;;;;;3.51;80.05;102292.28;5124268;27;20484;-60
2023/05/04 02:57:05;;;;;;;11.10;5.50;;;;;;;3.56;80.13;102290.56;5138504;27;20031;-59
2023/05/04 02:59:30;;;;;;;12.30;5.00;;;;;;;3.49;79.93;102290.53;5150468;27;20034;-59
2023/05/04 03:01:56;;;;;;;14.38;6.53;;;;;;;3.48;80.04;102286.16;5129322;27;20058;-59
2023/05/04 03:04:21;;;;;;;10.77;5.40;;;;;;;3.46;80.42;102289.63;5135480;27;20027;-59
2023/05/04 03:06:46;;;;;;;14.65;5.38;;;;;;;3.44;80.51;102289.59;5130072;27;20032;-60
2023/05/04 03:09:12;;;;;;;8.38;5.32;;;;;;;3.44;80.61;102284.38;5126177;27;20027;-60
2023/05/04 03:11:38;;;;;;;14.15;5.88;;;;;;;3.40;80.73;102285.22;5127190;27;20107;-59
2023/05/04 03:14:03;;;;;;;18.23;6.05;;;;;;;3.38;80.60;102288.69;5128647;27;20540;-59
2023/05/04 03:16:28;;;;;;;10.73;5.95;;;;;;;3.32;80.54;102286.91;5114725;27;20048;-58
2023/05/04 03:18:54;;;;;;;21.75;5.70;;;;;;;3.28;80.54;102287.72;5144174;27;20376;-60
2023/05/04 03:21:20;;;;;;;11.23;6.10;;;;;;;3.29;80.96;102286.88;5155292;27;20446;-60
2023/05/04 03:23:45;;;;;;;16.67;6.40;;;;;;;3.29;80.79;102281.66;5140669;27;20029;-60
2023/05/04 03:26:11;;;;;;;11.40;5.90;;;;;;;3.24;80.22;102292.06;5130587;27;20027;-60
2023/05/04 03:28:36;;;;;;;15.70;6.18;;;;;;;3.21;80.55;102285.94;5126300;27;20040;-60
2023/05/04 03:31:02;;;;;;;13.57;5.40;;;;;;;3.14;80.35;102290.22;5138622;27;20028;-59
2023/05/04 03:33:27;;;;;;;9.27;5.78;;;;;;;3.15;80.37;102293.69;5148474;27;20023;-61
2023/05/04 03:35:52;;;;;;;19.38;6.68;;;;;;;3.12;80.88;102291.91;5156136;27;20026;-59
2023/05/04 03:38:18;;;;;;;23.15;5.45;;;;;;;3.11;80.64;102291.06;5137177;27;20020;-60
2023/05/04 03:40:43;;;;;;;10.98;5.35;;;;;;;3.10;80.71;102293.66;5141931;27;20038;-60
2023/05/04 03:43:09;;;;;;;13.38;5.90;;;;;;;3.07;80.93;102286.69;5127586;27;20031;-60
2023/05/04 03:45:34;;;;;;;12.30;5.57;;;;;;;3.13;80.40;102289.31;5118776;27;20030;-60
2023/05/04 03:48:00;;;;;;;8.90;5.65;;;;;;;3.13;80.42;102288.47;5132493;27;20136;-59
2023/05/04 03:50:25;;;;;;;10.65;6.00;;;;;;;3.08;80.20;102283.19;5131961;27;20027;-60
2023/05/04 03:52:51;;;;;;;11.95;5.35;;;;;;;3.07;80.40;102284.06;5132350;27;20139;-59
2023/05/04 03:55:16;;;;;;;13.18;5.60;;;;;;;3.06;80.62;102287.53;5134612;27;20029;-60
2023/05/04 03:57:42;;;;;;;16.48;7.10;;;;;;;3.07;80.68;102277.94;5123518;27;20023;-59
2023/05/04 04:00:07;;;;;;;16.42;5.93;;;;;;;3.06;80.59;102287.53;5128646;27;20040;-59
2023/05/04 04:02:33;;;;;;;13.30;5.85;;;;;;;3.06;80.47;102282.28;5121969;27;20015;-60
2023/05/04 04:04:58;;;;;;;13.07;5.72;;;;;;;3.07;80.47;102286.69;5135226;27;20423;-60
2023/05/04 04:07:24;;;;;;;14.80;5.60;;;;;;;3.10;80.79;102291.03;5133977;27;20030;-59
2023/05/04 04:09:51;;;;;;;11.30;5.25;;;;;;;3.11;80.61;102279.75;5137077;27;20557;-60
2023/05/04 04:12:18;;;;;;;23.48;6.25;;;;;;;3.16;80.31;102287.63;5123139;27;20027;-60
2023/05/04 04:14:44;;;;;;;13.68;5.65;;;;;;;3.12;80.60;102292.81;5136161;27;20023;-60
2023/05/04 04:17:09;;;;;;;8.07;6.20;;;;;;;3.15;80.71;102288.47;5143126;27;20124;-59
2023/05/04 04:19:34;;;;;;;12.20;5.90;;;;;;;3.20;80.81;102278.94;5129845;27;20042;-61
2023/05/04 04:22:00;;;;;;;16.00;6.22;;;;;;;3.25;80.60;102282.47;5119188;27;20023;-61
2023/05/04 04:24:25;;;;;;;12.80;5.30;;;;;;;3.33;80.79;102270.34;5142435;27;20026;-61
2023/05/04 04:26:51;;;;;;;18.67;5.70;;;;;;;3.38;80.99;102273.88;5101174;27;20086;-59
2023/05/04 04:29:16;;;;;;;17.50;6.40;;;;;;;3.44;80.90;102276.53;5125214;27;20019;-60
2023/05/04 04:31:42;;;;;;;15.70;6.40;;;;;;;3.43;80.58;102280.03;5128713;27;20027;-60
2023/05/04 04:34:07;;;;;;;15.68;6.72;;;;;;;3.45;80.63;102273.06;5131567;27;20026;-60
2023/05/04 04:36:33;;;;;;;13.30;6.78;;;;;;;3.51;80.27;102284.44;5113790;27;20058;-60
2023/05/04 04:38:59;;;;;;;27.38;7.78;;;;;;;3.58;80.45;102283.63;5123739;27;20027;-60
2023/05/04 04:41:24;;;;;;;16.98;5.88;;;;;;;3.63;80.14;102289.78;5097366;27;20035;-60
2023/05/04 04:43:50;;;;;;;16.02;6.55;;;;;;;3.74;79.96;102288.09;5121072;27;20027;-61
2023/05/04 04:46:16;;;;;;;13.25;5.53;;;;;;;3.81;79.69;102284.69;5120390;27;20031;-60
2023/05/04 04:48:41;;;;;;;18.13;7.18;;;;;;;3.89;79.92;102286.44;5130977;27;20015;-60
2023/05/04 04:51:11;;;;;;;14.88;5.82;;;;;;;3.93;79.87;102285.63;5120720;27;20100;-60
2023/05/04 04:53:36;;;;;;;21.08;7.20;;;;;;;4.00;80.04;102290.03;5120808;27;20033;-60
2023/05/04 04:56:02;;;;;;;12.10;7.05;;;;;;;4.07;79.48;102291.81;5132201;27;20062;-60
2023/05/04 04:58:27;;;;;;;12.93;6.28;;;;;;;4.17;79.48;102288.38;5132823;27;20018;-60
2023/05/04 05:00:54;;;;;;;37.30;7.65;;;;;;;4.39;78.42;102286.72;5119767;27;20436;-60
2023/05/04 05:03:20;;;;;;;17.40;6.30;;;;;;;4.50;78.13;102280.69;5128339;27;20031;-60
2023/05/04 05:05:45;;;;;;;11.45;5.85;;;;;;;4.54;77.89;102280.69;5114259;27;20040;-60
2023/05/04 05:08:11;;;;;;;14.82;6.10;;;;;;;4.62;77.54;102280.72;5127935;27;20030;-60
2023/05/04 05:10:36;;;;;;;11.75;5.70;;;;;;;4.69;77.48;102279.88;5126630;27;20034;-60
2023/05/04 05:13:02;;;;;;;21.00;6.88;;;;;;;4.74;77.25;102272.00;5134959;27;20027;-60
2023/05/04 05:15:27;;;;;;;19.98;5.82;;;;;;;4.92;76.48;102279.94;5133033;27;20035;-60
2023/05/04 05:17:53;;;;;;;16.10;6.72;;;;;;;4.92;76.70;102277.31;5124017;27;20027;-60
2023/05/04 05:20:18;;;;;;;18.70;6.20;;;;;;;5.03;76.25;102279.09;5116689;27;20023;-59
2023/05/04 05:22:43;;;;;;;19.60;7.28;;;;;;;5.12;75.99;102279.13;5127171;27;20076;-60
2023/05/04 05:25:09;;;;;;;12.57;5.55;;;;;;;5.21;76.43;102271.22;5117045;27;20030;-60
2023/05/04 05:27:35;;;;;;;17.17;6.65;;;;;;;5.30;75.35;102273.00;5139194;27;20511;-60
2023/05/04 05:30:04;;;;;;;14.70;6.28;;;;;;;5.33;75.80;102271.25;5131852;27;20038;-60
2023/05/04 05:32:30;;;;;;;17.95;6.80;;;;;;;5.40;74.70;102273.88;5132315;27;20343;-62
2023/05/04 05:34:56;;;;;;;13.85;5.57;;;;;;;5.50;73.56;102267.75;5097850;27;20072;-61
2023/05/04 05:37:21;;;;;;;18.75;6.95;;;;;;;5.65;73.15;102267.72;5130201;27;20039;-60
2023/05/04 05:39:47;;;;;;;15.07;6.15;;;;;;;5.75;72.71;102272.97;5124609;28;20046;-60
2023/05/04 05:42:12;;;;;;;15.65;5.72;;;;;;;5.79;72.84;102274.75;5128489;27;20075;-60
2023/05/04 05:44:38;;;;;;;12.82;6.07;;;;;;;5.86;72.52;102273.84;5126770;27;20026;-60
2023/05/04 05:47:04;;;;;;;17.42;6.00;;;;;;;5.90;72.50;102270.31;5116000;28;20034;-60
2023/05/04 05:49:29;;;;;;;14.27;7.00;;;;;;;6.04;71.55;102268.59;5129021;27;20769;-60
2023/05/04 05:51:55;;;;;;;14.07;5.75;;;;;;;6.07;71.23;102273.81;5132333;27;20107;-59
2023/05/04 05:54:23;;;;;;;19.45;5.90;;;;;;;6.20;71.39;102268.56;5132160;28;20062;-62
2023/05/04 05:56:49;;;;;;;19.95;5.80;;;;;;;6.31;70.40;102266.78;5113902;27;20100;-61
2023/05/04 05:59:14;;;;;;;15.50;5.40;;;;;;;6.38;70.93;102265.84;5114896;27;20503;-59
2023/05/04 06:01:40;;;;;;;16.52;5.43;;;;;;;6.49;70.57;102262.28;5114240;27;20038;-59
2023/05/04 06:04:06;;;;;;;18.30;6.90;;;;;;;6.60;70.28;102261.38;5136735;28;20024;-59
2023/05/04 06:06:31;;;;;;;16.92;7.35;;;;;;;6.65;70.29;102263.97;5118204;27;20027;-59
2023/05/04 06:08:56;;;;;;;12.90;5.70;;;;;;;6.76;69.57;102256.91;5126373;27;20037;-61
2023/05/04 06:11:22;;;;;;;15.65;6.28;;;;;;;6.86;69.67;102260.34;5114832;27;20038;-60
2023/05/04 06:13:47;;;;;;;19.27;5.60;;;;;;;7.06;69.67;102254.97;5129617;27;20028;-61
2023/05/04 06:16:13;;;;;;;17.83;6.30;;;;;;;7.15;68.99;102254.91;5133927;27;20094;-61
2023/05/04 06:18:39;;;;;;;11.07;6.22;;;;;;;7.33;68.20;102258.28;5136394;27;20032;-60
2023/05/04 06:21:04;;;;;;;12.60;5.90;;;;;;;7.44;66.45;102256.44;5136966;27;20292;-60
2023/05/04 06:23:30;;;;;;;16.83;6.00;;;;;;;7.58;66.31;102258.94;5126146;27;20039;-60
2023/05/04 06:25:55;;;;;;;12.85;5.53;;;;;;;7.68;66.35;102255.34;5114328;27;20114;-60
2023/05/04 06:28:21;;;;;;;14.65;5.18;;;;;;;7.80;65.80;102256.13;5130713;27;20027;-60
2023/05/04 06:30:47;;;;;;;13.23;5.45;;;;;;;7.96;64.27;102265.59;5112627;27;20103;-61
2023/05/04 06:33:12;;;;;;;16.30;6.05;;;;;;;8.04;64.26;102268.13;5130751;27;20042;-61
2023/05/04 06:35:38;;;;;;;14.88;5.80;;;;;;;8.19;64.19;102267.97;5133941;27;20014;-60
2023/05/04 06:38:03;;;;;;;7.45;4.25;;;;;;;8.30;63.26;102265.19;5128279;27;20027;-59
2023/05/04 06:40:29;;;;;;;9.93;5.03;;;;;;;8.43;62.54;102268.59;5138591;27;20035;-60
2023/05/04 06:42:54;;;;;;;9.32;5.05;;;;;;;8.56;61.77;102267.53;5142803;27;20114;-60
2023/05/04 06:45:20;;;;;;;10.90;5.50;;;;;;;8.70;60.98;102264.72;5152779;27;20023;-61
2023/05/04 06:47:46;;;;;;;13.80;5.53;;;;;;;8.87;60.65;102261.84;5131153;27;20038;-60
2023/05/04 06:50:11;;;;;;;12.00;5.20;;;;;;;8.98;59.76;102265.19;5128386;27;20076;-61
2023/05/04 06:52:38;;;;;;;15.45;5.70;;;;;;;9.14;60.55;102259.72;5139292;27;20557;-59
2023/05/04 06:55:04;;;;;;;13.52;5.30;;;;;;;9.25;60.07;102262.16;5138937;27;20015;-60
2023/05/04 06:57:30;;;;;;;11.55;4.25;;;;;;;9.37;58.36;102262.84;5127181;27;20043;-61
2023/05/04 06:59:56;;;;;;;12.52;4.20;;;;;;;9.47;58.60;102262.69;5132676;27;20031;-60
2023/05/04 07:02:21;;;;;;;12.27;4.68;;;;;;;9.60;58.61;102258.94;5130513;27;20495;-61
2023/05/04 07:04:47;;;;;;;11.73;4.50;;;;;;;9.76;57.09;102256.00;5125299;27;20080;-61
2023/05/04 07:07:12;;;;;;;15.48;4.70;;;;;;;9.87;57.07;102268.16;5126472;27;20023;-61
2023/05/04 07:09:37;;;;;;;7.85;3.88;;;;;;;10.06;56.76;102262.50;5130658;27;20023;-60
2023/05/04 07:12:03;;;;;;;9.55;4.60;;;;;;;10.18;55.09;102266.66;5129740;27;20023;-61
2023/05/04 07:14:29;;;;;;;10.93;4.35;;;;;;;10.23;55.08;102264.78;5126540;27;20027;-61
2023/05/04 07:16:54;;;;;;;10.70;4.25;;;;;;;10.38;55.51;102263.66;5126412;27;20039;-61
2023/05/04 07:19:20;;;;;;;9.20;4.60;;;;;;;10.55;55.63;102261.53;5118136;27;20659;-59
2023/05/04 07:21:46;;;;;;;11.32;4.47;;;;;;;10.69;53.93;102261.25;5132161;27;20586;-60
2023/05/04 07:24:11;;;;;;;9.48;4.10;;;;;;;10.84;52.90;102258.25;5132665;27;20470;-59
2023/05/04 07:26:37;;;;;;;10.80;3.90;;;;;;;10.99;52.05;102250.84;5113363;27;20032;-60
2023/05/04 07:29:02;;;;;;;12.93;3.65;;;;;;;11.10;51.39;102254.13;5112024;27;20030;-61
2023/05/04 07:31:27;;;;;;;8.88;4.40;;;;;;;11.14;51.69;102249.63;5126782;27;20050;-61
2023/05/04 07:33:53;;;;;;;9.35;4.38;;;;;;;11.25;51.11;102246.72;5134770;27;20363;-61
2023/05/04 07:36:19;;;;;;;10.00;4.20;;;;;;;11.52;50.91;102246.03;5122652;27;20577;-61
2023/05/04 07:38:45;;;;;;;10.23;4.13;;;;;;;11.76;49.44;102238.34;5131549;27;20049;-61
2023/05/04 07:41:10;;;;;;;8.23;3.33;;;;;;;11.81;48.95;102241.72;5117329;27;20454;-62
2023/05/04 07:43:36;;;;;;;13.00;3.90;;;;;;;11.97;48.91;102238.69;5116993;27;20095;-63
2023/05/04 07:46:02;;;;;;;11.07;3.72;;;;;;;12.19;48.13;102237.16;5129033;27;20030;-60
2023/05/04 07:48:27;;;;;;;10.80;3.50;;;;;;;12.24;46.98;102235.25;5135722;27;20015;-61
2023/05/04 07:50:53;;;;;;;11.10;3.08;;;;;;;12.38;46.09;102234.00;5130956;27;20034;-59
2023/05/04 07:53:19;;;;;;;6.53;3.75;;;;;;;12.58;46.50;102234.25;5147044;27;20027;-60
2023/05/04 07:55:45;;;;;;;7.53;3.25;;;;;;;12.58;46.83;102223.63;5140384;27;20074;-60
2023/05/04 07:58:12;;;;;;;11.20;3.47;;;;;;;12.70;45.68;102226.81;5140721;27;20023;-60
2023/05/04 08:00:37;;;;;;;12.68;3.38;;;;;;;12.78;45.36;102231.00;5149090;27;20030;-60
2023/05/04 08:03:03;;;;;;;7.90;3.10;;;;;;;12.89;43.96;102222.69;5130480;27;20027;-60
2023/05/04 08:05:28;;;;;;;9.77;3.60;;;;;;;13.09;44.13;102218.50;5136155;27;20027;-59
2023/05/04 08:07:53;;;;;;;7.13;3.10;;;;;;;13.09;44.24;102218.50;5119489;27;20020;-60
2023/05/04 08:10:19;;;;;;;7.57;3.70;;;;;;;13.32;43.48;102212.44;5129991;27;20743;-59
2023/05/04 08:12:45;;;;;;;9.75;3.40;;;;;;;13.53;42.80;102210.84;5126696;27;20043;-60
2023/05/04 08:15:11;;;;;;;16.00;3.38;;;;;;;13.55;42.21;102212.56;5127526;27;20327;-60
2023/05/04 08:17:38;;;;;;;8.02;2.65;;;;;;;13.82;41.91;102222.25;5120005;27;20024;-59
2023/05/04 08:20:06;;;;;;;8.38;3.20;;;;;;;13.68;41.26;102218.31;5123801;27;20037;-60
2023/05/04 08:22:32;;;;;;;11.35;3.42;;;;;;;13.81;41.40;102213.38;5126761;27;20041;-60
2023/05/04 08:24:57;;;;;;;12.15;2.90;;;;;;;13.97;41.59;102208.38;5119917;27;20039;-60
2023/05/04 08:27:23;;;;;;;4.68;2.17;;;;;;;14.26;39.51;102211.75;5121921;27;20533;-61
2023/05/04 08:29:48;;;;;;;6.70;2.38;;;;;;;14.44;38.49;102203.06;5100901;28;20042;-59
2023/05/04 08:32:14;;;;;;;11.30;2.72;;;;;;;14.52;38.59;102208.09;5117773;27;20064;-60
2023/05/04 08:34:39;;;;;;;10.75;3.55;;;;;;;14.38;39.04;102211.28;5121505;27;20024;-61
2023/05/04 08:37:05;;;;;;;5.55;2.40;;;;;;;14.68;39.35;102205.75;5116516;27;20043;-60
2023/05/04 08:39:30;;;;;;;8.00;2.47;;;;;;;14.52;38.58;102205.44;5124230;27;20255;-60
2023/05/04 08:41:56;;;;;;;4.25;2.88;;;;;;;14.85;37.35;102197.94;5114723;27;20031;-60
2023/05/04 08:44:21;;;;;;;7.90;3.03;;;;;;;14.52;37.45;102204.59;5124541;27;20034;-60
2023/05/04 08:46:52;;;;;;;7.13;2.40;;;;;;;14.56;37.18;102198.19;5124121;27;20438;-60
2023/05/04 08:49:21;;;;;;;8.98;3.42;;;;;;;14.86;37.46;102199.66;5109311;27;20023;-60
2023/05/04 08:51:48;;;;;;;6.38;2.65;;;;;;;14.99;37.02;102199.16;5127690;27;20062;-60
2023/05/04 08:54:14;;;;;;;4.65;2.60;;;;;;;15.05;36.58;102188.25;5124229;27;20200;-60
2023/05/04 08:56:39;;;;;;;21.27;9.38;;;;;;;15.04;36.64;102199.84;5128547;27;20568;-61
2023/05/04 08:59:06;;;;;;;34.30;14.52;;;;;;;15.20;36.59;102192.06;5120862;27;20023;-59
2023/05/04 09:01:31;;;;;;;9.45;3.72;;;;;;;15.27;36.03;102190.88;5094012;28;20085;-61
2023/05/04 09:03:57;;;;;;;7.68;2.60;;;;;;;15.33;35.77;102187.09;5120112;27;20447;-60
2023/05/04 09:06:23;;;;;;;10.82;2.65;;;;;;;15.19;34.99;102183.22;5108973;27;20039;-59
2023/05/04 09:08:48;;;;;;;7.45;2.30;;;;;;;14.94;35.84;102185.16;5126247;27;20027;-60
2023/05/04 09:11:13;;;;;;;8.70;2.35;;;;;;;15.16;35.86;102196.66;5119290;27;20027;-60
2023/05/04 09:13:41;;;;;;;6.40;2.40;;;;;;;15.17;34.73;102193.06;5126850;27;20034;-60
2023/05/04 09:16:07;;;;;;;7.60;2.38;;;;;;;15.12;34.85;102184.41;5127704;27;20042;-61
2023/05/04 09:18:37;;;;;;;4.60;2.65;;;;;;;15.12;35.02;102179.09;5118148;27;20170;-59
2023/05/04 09:21:03;;;;;;;5.93;2.45;;;;;;;15.10;35.11;102175.59;5118021;27;20035;-59
2023/05/04 09:23:28;;;;;;;10.73;3.30;;;;;;;15.36;34.72;102177.16;5111958;27;20560;-59
2023/05/04 09:25:54;;;;;;;13.45;3.00;;;;;;;15.45;34.28;102181.25;5132512;27;20372;-60
2023/05/04 09:28:32;;;;;;;10.52;3.08;;;;;;;15.56;34.47;102178.09;5113685;27;20011;-62
2023/05/04 09:31:01;;;;;;;9.77;2.88;;;;;;;16.14;34.23;102174.63;5119536;27;20023;-61
2023/05/04 09:33:27;;;;;;;8.55;2.65;;;;;;;16.13;33.53;102176.44;5111152;27;20073;-60
2023/05/04 09:35:52;;;;;;;9.48;2.92;;;;;;;15.93;33.51;102169.34;5130580;27;20504;-61
2023/05/04 09:38:27;;;;;;;7.57;2.10;;;;;;;16.19;33.87;102172.59;5125876;27;20347;-59
2023/05/04 09:40:53;;;;;;;7.00;2.47;;;;;;;16.18;33.52;102165.53;5130608;27;20042;-60
2023/05/04 09:43:18;;;;;;;7.90;2.58;;;;;;;16.26;33.29;102167.84;5126104;27;20031;-60
2023/05/04 09:45:45;;;;;;;7.43;2.65;;;;;;;16.41;33.40;102171.59;5125086;27;20030;-60
2023/05/04 09:48:28;;;;;;;10.48;2.88;;;;;;;16.34;32.92;102160.34;5105271;28;20023;-60
2023/05/04 09:50:55;;;;;;;5.82;3.05;;;;;;;16.59;33.41;102157.38;5127955;27;20077;-60
2023/05/04 09:53:23;;;;;;;8.50;3.00;;;;;;;16.54;34.41;102154.03;5136133;27;20117;-60
2023/05/04 09:56:27;;;;;;;12.20;3.00;;;;;;;16.68;33.53;102159.56;5102563;28;20051;-60
2023/05/04 09:58:56;;;;;;;8.45;3.70;;;;;;;16.68;33.25;102148.91;5132130;27;20481;-60
2023/05/04 10:01:22;;;;;;;8.13;2.50;;;;;;;16.58;31.70;102139.63;5132664;27;20481;-61
2023/05/04 10:03:47;;;;;;;6.05;1.98;;;;;;;16.64;30.91;102136.66;5128300;27;20042;-60
2023/05/04 10:06:13;;;;;;;11.35;1.80;;;;;;;16.78;29.39;102140.44;5130749;27;20482;-61
2023/05/04 10:08:39;;;;;;;7.65;2.53;;;;;;;16.95;29.48;102135.16;5126243;27;20383;-61
2023/05/04 10:11:06;;;;;;;6.18;3.25;;;;;;;17.10;30.21;102133.50;5121320;27;20573;-60
2023/05/04 10:13:31;;;;;;;7.60;2.65;;;;;;;17.19;30.82;102126.81;5106070;28;20098;-61
2023/05/04 10:16:00;;;;;;;9.65;2.45;;;;;;;17.38;31.36;102116.91;5109528;28;20031;-60
2023/05/04 10:18:28;;;;;;;8.48;2.42;;;;;;;17.18;31.55;102117.06;5126303;27;20043;-60
2023/05/04 10:20:53;;;;;;;10.57;2.72;;;;;;;17.17;30.25;102120.69;5133217;27;20035;-60
2023/05/04 10:23:48;;;;;;;6.43;2.20;;;;;;;17.19;30.24;102117.00;5129223;27;20039;-60
2023/05/04 10:26:36;;;;;;;16.02;3.25;;;;;;;17.59;29.54;102119.38;5130634;28;20458;-60
2023/05/04 10:29:20;;;;;;;8.73;2.17;;;;;;;17.79;28.10;102111.13;5110667;28;20215;-59
2023/05/04 10:31:46;;;;;;;9.50;5.53;;;;;;;17.41;28.80;102105.19;5121933;27;20055;-61
2023/05/04 10:34:31;;;;;;;7.28;2.65;;;;;;;17.60;29.09;102102.38;5131965;27;20595;-61
2023/05/04 10:36:57;;;;;;;6.22;2.28;;;;;;;17.94;28.34;102109.47;5115331;27;20043;-59
2023/05/04 10:39:24;;;;;;;9.02;2.33;;;;;;;18.25;27.73;102101.53;5131128;27;20499;-61
2023/05/04 10:42:01;;;;;;;5.88;1.80;;;;;;;18.24;27.25;102099.81;5120067;27;20027;-62
2023/05/04 10:44:28;;;;;;;6.25;1.98;;;;;;;18.27;28.15;102094.28;5122337;27;20027;-62
2023/05/04 10:47:01;;;;;;;10.45;3.05;;;;;;;18.44;27.04;102091.50;5125127;27;20027;-62
2023/05/04 10:49:26;;;;;;;7.28;2.42;;;;;;;19.19;28.29;102082.66;5120245;27;20441;-61
2023/05/04 10:52:14;;;;;;;13.88;4.15;;;;;;;19.31;26.69;102078.38;5112672;27;20024;-61
2023/05/04 10:54:40;;;;;;;6.32;2.75;;;;;;;19.91;26.63;102070.13;5126755;28;20108;-61
2023/05/04 10:57:08;;;;;;;8.75;4.00;;;;;;;20.33;25.89;102064.72;5127720;27;20461;-61
2023/05/04 10:59:33;;;;;;;6.55;3.13;;;;;;;20.23;25.70;102069.84;5125690;27;20027;-61
2023/05/04 11:02:02;;;;;;;6.88;2.60;;;;;;;21.49;24.39;102062.25;5140181;27;20492;-62
2023/05/04 11:04:27;;;;;;;7.85;2.30;;;;;;;21.65;24.25;102065.56;5123126;27;20394;-62
2023/05/04 11:07:04;;;;;;;5.72;2.40;;;;;;;21.65;24.59;102054.81;5118917;27;20031;-62
2023/05/04 11:09:35;;;;;;;8.75;2.30;;;;;;;21.38;25.10;102058.50;5106266;27;20019;-61
2023/05/04 11:12:01;;;;;;;5.63;2.20;;;;;;;21.43;25.15;102056.31;5119789;27;20114;-61
2023/05/04 11:14:27;;;;;;;11.73;3.42;;;;;;;22.09;23.90;102050.69;5124316;27;20073;-61
2023/05/04 11:17:14;;;;;;;5.07;2.00;;;;;;;22.10;24.14;102047.03;5125134;27;20027;-61
2023/05/04 11:19:49;;;;;;;9.13;2.40;;;;;;;21.57;24.47;102043.75;5121840;27;20028;-61
2023/05/04 11:22:16;;;;;;;8.30;2.60;;;;;;;22.23;23.22;102043.41;5115737;27;20038;-61